Eustis, ME (04936)

12:32 PM EST on January 17, 2017 (GMT -0500)
Hedgehog Village | | Change Station
Active Advisory: Small Craft Advisory

Elev 1175 ft 45.13 °N, 70.42 °W | Updated 14 seconds ago

Overcast
Overcast
31.6 °F
Feels Like 32 °F
N
2.9
Wind Variable Wind from ENE
Gusts 4.9 mph

Today
High -- | Low -- °F
--% Chance of Precip.
Yesterday
High -- | Low -- °F
Precip. -- in
Pressure 30.23 in
Visibility 10.0 miles
Clouds Scattered Clouds 2400 ft
Windchill 32 °F
Dew Point 17 °F
Humidity 55%
Rainfall 0.00 in
Snow Depth Not available.
7:15 AM 4:28 PM
Waning Gibbous, 71% visible
METAR KBML 171652Z AUTO 00000KT 10SM SCT024 00/M07 A3018 RMK AO2 SLP237 T00001072
Pressure 30.23 in
Visibility 10.0 miles
Clouds Scattered Clouds 2400 ft
Windchill 32 °F
Dew Point 17 °F
Humidity 55%
Rainfall 0.00 in
Snow Depth Not available.
7:15 AM 4:28 PM
Waning Gibbous, 71% visible
METAR KBML 171652Z AUTO 00000KT 10SM SCT024 00/M07 A3018 RMK AO2 SLP237 T00001072

Get Your Daily Forecast Email!

Thanks for signing up!

Be on the lookout for a verification email in your inbox.

You'll start receiving the daily forecast at 8 AM.

×

10-Day Weather Forecast

Almanac

Astronomy

Jan. 17, 2017 Rise Set
Actual Time
Civil Twilight
Nautical Twilight
Astronomical Twilight
Moon
Length of Visible Light
Length of Day
Tomorrow will be .
, % of the Moon is Illuminated

Today's Extremes

State Highs State Lows

Community

WunderPhotos

Upload Photos

1,962,540 photos uploaded!

WunderBlog® & News

Nearby

Air Quality

  Air Quality AQ Index Pollutant
Not available.

Snow Depth

Station Depth Elevation

Earthquake Activity

City Distance Mag. Time & Date
Minimum magnitude displayed is 2.5.

Coastal Water Temperatures

Place Temperature

Stations

Nearby Weather Stations

Station Location Temp. Windchill Dew Point Humidity Wind Precip. Elev Updated Type
                   

Watches & Warnings

Small Craft Advisory
Issued: 3:15 AM EST Jan. 17, 2017 – National Weather Service

... Small Craft Advisory in effect from 1 am to 6 PM EST
Wednesday...

The National Weather Service in gray has issued a Small Craft
Advisory... which is in effect from 1 am to 6 PM EST Wednesday.

* Winds... east 15 to 20 kt with gusts up to 30 kt.

* Seas... 5 to 8 feet.

Precautionary/preparedness actions...

A Small Craft Advisory means that wind speeds of 25 to 33 knots
are expected to produce hazardous wave conditions to small craft.
Inexperienced mariners... especially those operating smaller
vessels should avoid navigating in these conditions.